createdAt,value
2023-06-27T00:01:54.035Z,97.50
2023-06-27T00:04:24.435Z,97.60
2023-06-27T00:06:51.900Z,97.70
2023-06-27T00:09:19.134Z,97.90
2023-06-27T00:11:46.140Z,98.00
2023-06-27T00:14:15.147Z,98.00
2023-06-27T00:16:42.387Z,98.10
2023-06-27T00:19:09.383Z,98.10
2023-06-27T00:21:36.601Z,98.30
2023-06-27T00:24:04.886Z,98.30
2023-06-27T00:26:32.577Z,98.40
2023-06-27T00:28:59.745Z,98.50
2023-06-27T00:31:27.394Z,98.60
2023-06-27T00:33:54.634Z,98.60
2023-06-27T00:36:21.632Z,98.70
2023-06-27T00:38:48.622Z,98.80
2023-06-27T00:41:15.633Z,98.90
2023-06-27T00:43:42.754Z,99.00
2023-06-27T00:46:14.250Z,99.10
2023-06-27T00:48:42.831Z,99.20
2023-06-27T00:51:11.005Z,99.20
2023-06-27T00:53:38.815Z,99.20
2023-06-27T00:56:06.098Z,99.40
2023-06-27T00:58:34.859Z,99.50
2023-06-27T01:01:02.344Z,99.60
2023-06-27T01:03:34.831Z,99.70
2023-06-27T01:06:19.484Z,99.80
2023-06-27T01:09:00.389Z,99.90
2023-06-27T01:11:35.959Z,99.90
2023-06-27T01:14:05.177Z,99.90
2023-06-27T01:16:36.186Z,99.90
2023-06-27T01:19:09.696Z,99.90
2023-06-27T01:21:40.711Z,99.90
2023-06-27T01:24:08.947Z,99.90
2023-06-27T01:26:36.407Z,99.90
2023-06-27T01:29:03.506Z,99.90
2023-06-27T01:31:42.129Z,99.90
2023-06-27T01:34:30.701Z,99.90
2023-06-27T01:37:14.738Z,99.90
2023-06-27T01:40:12.335Z,99.90
2023-06-27T01:42:50.383Z,99.90
2023-06-27T01:45:19.171Z,99.90
2023-06-27T01:47:46.334Z,99.90
2023-06-27T01:50:14.747Z,99.90
2023-06-27T01:52:42.640Z,99.90
2023-06-27T01:55:10.241Z,99.90
2023-06-27T01:57:37.820Z,99.90
2023-06-27T02:00:08.053Z,99.90
2023-06-27T02:02:35.238Z,99.90
2023-06-27T02:05:02.147Z,99.90
2023-06-27T02:07:29.100Z,99.90
2023-06-27T02:09:56.041Z,99.90
2023-06-27T02:12:22.976Z,99.90
2023-06-27T02:14:49.870Z,99.90
2023-06-27T02:17:17.169Z,99.90
2023-06-27T02:19:44.053Z,99.90
2023-06-27T02:22:10.939Z,99.90
2023-06-27T02:24:37.917Z,99.90
2023-06-27T02:27:05.093Z,99.90
2023-06-27T02:29:32.214Z,99.90
2023-06-27T02:31:59.340Z,99.90
2023-06-27T02:34:26.284Z,99.90
2023-06-27T02:36:53.263Z,99.90
2023-06-27T02:39:20.122Z,99.90
2023-06-27T02:41:47.003Z,99.90
2023-06-27T02:44:13.833Z,99.90
2023-06-27T02:46:40.766Z,99.90
2023-06-27T02:49:07.790Z,99.90
2023-06-27T02:51:34.980Z,99.90
2023-06-27T02:54:01.903Z,99.90
2023-06-27T02:56:28.838Z,99.90
2023-06-27T02:58:55.768Z,99.90
2023-06-27T03:01:22.663Z,99.90
2023-06-27T03:03:49.747Z,99.90
2023-06-27T03:06:16.780Z,99.90
2023-06-27T03:08:45.004Z,99.90
2023-06-27T03:11:11.958Z,99.90
2023-06-27T03:13:38.909Z,99.90
2023-06-27T03:16:05.849Z,99.90
2023-06-27T03:18:32.759Z,99.90
2023-06-27T03:20:59.721Z,99.90
2023-06-27T03:23:26.621Z,99.90
2023-06-27T03:25:53.732Z,99.90
2023-06-27T03:28:20.688Z,99.90
2023-06-27T03:30:47.718Z,99.90
2023-06-27T03:33:14.749Z,99.90
2023-06-27T03:35:41.783Z,99.90
2023-06-27T03:38:08.862Z,99.90
2023-06-27T03:40:35.744Z,99.90
2023-06-27T03:43:03.134Z,99.90
2023-06-27T03:45:30.182Z,99.90
2023-06-27T03:47:57.240Z,99.90
2023-06-27T03:50:24.408Z,99.90
2023-06-27T03:52:51.555Z,99.90
2023-06-27T03:55:18.743Z,99.90
2023-06-27T03:57:45.672Z,99.90
2023-06-27T04:00:13.631Z,99.90
2023-06-27T04:02:40.579Z,99.90
2023-06-27T04:05:08.077Z,99.90
2023-06-27T04:07:35.305Z,99.90
2023-06-27T04:10:02.223Z,99.90
2023-06-27T04:12:29.202Z,99.90
2023-06-27T04:14:56.116Z,99.90
2023-06-27T04:17:23.253Z,99.90
2023-06-27T04:19:50.255Z,99.90
2023-06-27T04:22:17.194Z,99.90
2023-06-27T04:24:44.077Z,99.90
2023-06-27T04:27:11.022Z,99.90
2023-06-27T04:29:38.689Z,99.90
2023-06-27T04:32:06.276Z,99.90
2023-06-27T04:34:37.143Z,99.90
2023-06-27T04:37:05.553Z,99.90
2023-06-27T04:39:32.727Z,99.90
2023-06-27T04:41:59.701Z,99.90
2023-06-27T04:44:26.775Z,99.90
2023-06-27T04:46:53.926Z,99.90
2023-06-27T04:49:20.963Z,99.90
2023-06-27T04:51:47.975Z,99.90
2023-06-27T04:54:14.899Z,99.90
2023-06-27T04:56:41.991Z,99.90
2023-06-27T04:59:08.929Z,99.90
2023-06-27T05:01:35.767Z,99.90
2023-06-27T05:04:06.172Z,99.90
2023-06-27T05:06:34.722Z,99.90
2023-06-27T05:09:02.649Z,99.90
2023-06-27T05:11:29.822Z,99.90
2023-06-27T05:13:57.302Z,99.90
2023-06-27T05:16:24.628Z,99.90
2023-06-27T05:18:51.620Z,99.90
2023-06-27T05:21:18.508Z,99.90
2023-06-27T05:23:45.493Z,99.90
2023-06-27T05:26:12.450Z,99.90
2023-06-27T05:28:40.243Z,99.90
2023-06-27T05:31:07.298Z,99.90
2023-06-27T05:33:34.772Z,99.90
2023-06-27T05:36:01.775Z,99.90
2023-06-27T05:38:28.733Z,99.90
2023-06-27T05:40:55.711Z,99.90
2023-06-27T05:43:23.475Z,99.90
2023-06-27T05:45:50.966Z,99.90
2023-06-27T05:48:18.105Z,99.90
2023-06-27T05:50:45.012Z,99.90
2023-06-27T05:53:11.944Z,99.90
2023-06-27T05:55:39.197Z,99.90
2023-06-27T05:58:06.406Z,99.90
2023-06-27T06:00:33.435Z,99.90
2023-06-27T06:03:00.425Z,99.90
2023-06-27T06:05:27.343Z,99.90
2023-06-27T06:07:55.500Z,99.90
2023-06-27T06:10:23.185Z,99.90
2023-06-27T06:12:50.337Z,99.90
2023-06-27T06:15:19.191Z,99.90
2023-06-27T06:17:46.300Z,99.90
2023-06-27T06:20:13.474Z,99.90
2023-06-27T06:22:40.661Z,99.90
2023-06-27T06:25:08.607Z,99.90
2023-06-27T06:27:35.796Z,99.90
2023-06-27T06:30:02.937Z,99.90
2023-06-27T06:32:29.905Z,99.90
2023-06-27T06:34:56.987Z,99.90
2023-06-27T06:37:24.021Z,99.90
2023-06-27T06:39:50.959Z,99.90
2023-06-27T06:42:18.080Z,99.90
2023-06-27T06:44:46.160Z,99.90
2023-06-27T06:47:13.170Z,99.90
2023-06-27T06:49:40.171Z,99.90
2023-06-27T06:52:07.776Z,99.90
2023-06-27T06:54:34.688Z,99.90
2023-06-27T06:57:01.580Z,99.90
2023-06-27T06:59:28.542Z,99.90
2023-06-27T07:01:55.425Z,99.60
2023-06-27T07:04:22.408Z,98.40
2023-06-27T07:06:49.725Z,97.70
2023-06-27T07:09:16.773Z,97.50
2023-06-27T07:11:44.005Z,96.30
2023-06-27T07:14:13.539Z,95.60
2023-06-27T07:16:40.431Z,94.80
2023-06-27T07:19:07.740Z,94.60
2023-06-27T07:21:36.012Z,94.20
2023-06-27T07:24:03.051Z,93.60
2023-06-27T07:26:30.067Z,93.10
2023-06-27T07:28:56.985Z,92.90
2023-06-27T07:31:25.700Z,92.60
2023-06-27T07:33:52.726Z,92.50
2023-06-27T07:36:19.989Z,91.60
2023-06-27T07:38:47.544Z,90.70
2023-06-27T07:41:14.550Z,87.30
2023-06-27T07:43:41.448Z,84.80
2023-06-27T07:46:08.300Z,81.70
2023-06-27T07:48:35.215Z,80.20
2023-06-27T07:51:02.165Z,77.90
2023-06-27T07:53:29.151Z,74.60
2023-06-27T07:55:55.982Z,73.40
2023-06-27T07:58:23.481Z,71.60
2023-06-27T08:00:50.378Z,69.00
2023-06-27T08:03:17.428Z,68.40
2023-06-27T08:05:44.864Z,67.50
2023-06-27T08:08:12.021Z,66.60
2023-06-27T08:10:39.240Z,66.50
2023-06-27T08:13:06.496Z,64.70
2023-06-27T08:15:33.495Z,63.20
2023-06-27T08:18:03.492Z,63.90
2023-06-27T08:20:32.956Z,64.60
2023-06-27T08:22:59.841Z,64.90
2023-06-27T08:25:26.795Z,63.60
2023-06-27T08:27:53.687Z,61.70
2023-06-27T08:30:20.921Z,59.70
2023-06-27T08:32:47.844Z,58.20
2023-06-27T08:35:14.941Z,57.60
2023-06-27T08:37:41.878Z,57.70
2023-06-27T08:40:10.427Z,56.90
2023-06-27T08:42:37.778Z,55.80
2023-06-27T08:45:05.488Z,55.40
2023-06-27T08:47:36.284Z,55.80
2023-06-27T08:50:05.318Z,55.10
2023-06-27T08:52:51.764Z,54.90
2023-06-27T08:55:56.421Z,55.40
2023-06-27T08:58:33.015Z,56.50
2023-06-27T09:01:00.983Z,56.90
2023-06-27T09:03:28.935Z,58.30
2023-06-27T09:05:57.219Z,58.70
2023-06-27T09:08:24.431Z,59.90
2023-06-27T09:10:52.147Z,60.70
2023-06-27T09:13:20.997Z,62.50
2023-06-27T09:15:47.960Z,64.10
2023-06-27T09:18:15.033Z,64.80
2023-06-27T09:20:43.276Z,64.80
2023-06-27T09:23:11.809Z,64.10
2023-06-27T09:25:39.071Z,65.70
2023-06-27T09:28:19.434Z,67.10
2023-06-27T09:30:58.662Z,66.90
2023-06-27T09:33:27.784Z,67.50
2023-06-27T09:41:06.650Z,66.30
2023-06-27T09:43:36.667Z,65.10
2023-06-27T09:46:06.198Z,65.50
2023-06-27T09:48:33.249Z,66.10
2023-06-27T09:51:01.893Z,66.00
2023-06-27T09:53:34.124Z,66.10
2023-06-27T09:56:02.230Z,65.70
2023-06-27T09:58:33.432Z,65.50
2023-06-27T10:01:07.852Z,62.50
2023-06-27T10:03:36.258Z,61.60
2023-06-27T10:06:11.244Z,63.90
2023-06-27T10:08:39.901Z,65.70
2023-06-27T10:11:08.115Z,67.10
2023-06-27T10:13:37.405Z,68.20
2023-06-27T10:16:04.707Z,68.50
2023-06-27T10:18:31.618Z,68.20
2023-06-27T10:20:58.917Z,67.50
2023-06-27T10:23:27.505Z,66.00
2023-06-27T10:25:54.769Z,62.40
2023-06-27T10:28:21.945Z,63.40
2023-06-27T10:30:49.328Z,65.10
2023-06-27T10:33:29.927Z,66.90
2023-06-27T10:36:10.852Z,67.10
2023-06-27T10:38:46.929Z,68.40
2023-06-27T10:41:25.643Z,68.20
2023-06-27T10:43:54.032Z,69.40
2023-06-27T10:46:28.122Z,69.90
2023-06-27T10:49:04.919Z,69.50
2023-06-27T10:51:44.109Z,70.10
2023-06-27T10:54:13.755Z,70.20
2023-06-27T10:56:54.231Z,70.20
2023-06-27T10:59:24.470Z,70.40
2023-06-27T11:02:02.513Z,71.20
2023-06-27T11:04:45.535Z,72.00
2023-06-27T11:07:19.380Z,72.50
2023-06-27T11:09:56.509Z,72.20
2023-06-27T11:12:24.068Z,71.20
2023-06-27T11:14:55.399Z,71.30
2023-06-27T11:17:24.961Z,71.00
2023-06-27T11:19:52.706Z,69.70
2023-06-27T11:22:19.721Z,69.20
2023-06-27T11:24:47.203Z,70.00
2023-06-27T11:27:14.380Z,70.60
2023-06-27T11:29:43.136Z,71.30
2023-06-27T11:32:11.205Z,71.90
2023-06-27T11:34:43.473Z,71.80
2023-06-27T11:37:12.971Z,71.80
2023-06-27T11:39:39.950Z,71.90
2023-06-27T11:42:07.157Z,70.70
2023-06-27T11:44:36.116Z,71.60
2023-06-27T11:47:07.556Z,69.90
2023-06-27T11:49:36.454Z,69.70
2023-06-27T11:52:03.762Z,68.80
2023-06-27T11:54:30.823Z,67.50
2023-06-27T11:57:02.566Z,68.20
2023-06-27T11:59:33.888Z,68.90
2023-06-27T12:02:03.407Z,69.30
2023-06-27T12:04:30.506Z,69.20
2023-06-27T12:07:19.052Z,69.30
2023-06-27T12:09:46.289Z,69.80
2023-06-27T12:12:13.182Z,70.30
2023-06-27T12:14:40.093Z,70.70
2023-06-27T12:17:22.335Z,70.90
2023-06-27T12:19:50.688Z,71.80
2023-06-27T12:22:17.623Z,70.50
2023-06-27T12:24:44.584Z,69.40
2023-06-27T12:27:13.196Z,69.00
2023-06-27T12:29:40.170Z,70.80
2023-06-27T12:32:07.354Z,69.70
2023-06-27T12:34:37.269Z,69.40
2023-06-27T12:37:04.452Z,67.80
2023-06-27T12:39:31.328Z,67.90
2023-06-27T12:41:58.345Z,67.80
2023-06-27T12:44:25.354Z,67.00
2023-06-27T12:46:52.314Z,66.80
2023-06-27T12:49:19.389Z,65.00
2023-06-27T12:51:46.698Z,63.50
2023-06-27T12:54:13.651Z,63.20
2023-06-27T12:56:40.576Z,61.50
2023-06-27T12:59:07.471Z,62.80
2023-06-27T13:01:45.958Z,63.50
2023-06-27T13:04:12.962Z,62.70
2023-06-27T13:06:40.104Z,62.40
2023-06-27T13:09:07.125Z,61.20
2023-06-27T13:11:34.093Z,60.70
2023-06-27T13:14:01.272Z,60.10
2023-06-27T13:16:28.447Z,60.10
2023-06-27T13:18:55.540Z,59.80
2023-06-27T13:21:22.559Z,59.50
2023-06-27T13:23:49.543Z,59.70
2023-06-27T13:26:16.624Z,59.20
2023-06-27T13:28:44.292Z,59.30
2023-06-27T13:31:11.709Z,58.00
2023-06-27T13:33:38.762Z,59.00
2023-06-27T13:36:06.694Z,59.20
2023-06-27T13:38:33.625Z,59.70
2023-06-27T13:41:00.558Z,59.90
2023-06-27T13:43:27.440Z,59.80
2023-06-27T13:45:55.789Z,59.70
2023-06-27T13:48:23.401Z,60.00
2023-06-27T13:50:51.117Z,59.50
2023-06-27T13:53:18.047Z,59.60
2023-06-27T13:55:48.427Z,60.10
2023-06-27T13:58:18.220Z,60.80
2023-06-27T14:00:50.049Z,62.20
2023-06-27T14:03:20.253Z,63.80
2023-06-27T14:05:48.756Z,64.50
2023-06-27T14:08:15.678Z,65.00
2023-06-27T14:10:43.405Z,65.20
2023-06-27T14:13:11.359Z,64.40
2023-06-27T14:15:39.577Z,64.20
2023-06-27T14:18:07.096Z,65.00
2023-06-27T14:20:34.159Z,64.50
2023-06-27T14:23:01.077Z,63.10
2023-06-27T14:25:28.211Z,62.70
2023-06-27T14:27:55.365Z,62.50
2023-06-27T14:30:22.654Z,62.50
2023-06-27T14:32:50.936Z,61.90
2023-06-27T14:35:19.295Z,61.90
2023-06-27T14:37:46.386Z,63.20
2023-06-27T14:40:14.115Z,62.00
2023-06-27T14:42:41.099Z,62.20
2023-06-27T14:45:09.158Z,62.70
2023-06-27T14:47:36.234Z,62.40
2023-06-27T14:50:05.262Z,63.30
2023-06-27T14:52:32.336Z,63.80
2023-06-27T14:54:59.265Z,63.80
2023-06-27T14:57:26.282Z,63.50
2023-06-27T14:59:53.475Z,63.10
2023-06-27T15:02:20.440Z,63.30
2023-06-27T15:04:47.511Z,64.20
2023-06-27T15:07:14.518Z,64.80
2023-06-27T15:09:41.393Z,65.30
2023-06-27T15:12:09.392Z,65.40
2023-06-27T15:14:36.396Z,65.30
2023-06-27T15:17:03.416Z,67.20
2023-06-27T15:19:30.431Z,66.30
2023-06-27T15:21:57.467Z,66.30
2023-06-27T15:24:24.485Z,66.30
2023-06-27T15:26:51.361Z,66.40
2023-06-27T15:29:18.236Z,67.00
2023-06-27T15:31:45.182Z,68.20
2023-06-27T15:34:12.148Z,68.80
2023-06-27T15:36:39.056Z,69.00
2023-06-27T15:39:06.005Z,68.70
2023-06-27T15:41:32.902Z,68.90
2023-06-27T15:43:59.975Z,68.80
2023-06-27T15:46:26.946Z,69.30
2023-06-27T15:48:55.139Z,69.60
2023-06-27T15:51:22.093Z,69.50
2023-06-27T15:53:49.028Z,69.30
2023-06-27T15:56:16.400Z,69.30
2023-06-27T15:58:43.306Z,69.20
2023-06-27T16:01:11.100Z,69.50
2023-06-27T16:03:38.761Z,68.70
2023-06-27T16:06:05.813Z,69.00
2023-06-27T16:08:32.967Z,68.40
2023-06-27T16:10:59.885Z,68.50
2023-06-27T16:13:26.801Z,69.30
2023-06-27T16:15:53.729Z,69.40
2023-06-27T16:18:22.683Z,69.60
2023-06-27T16:20:52.138Z,70.30
2023-06-27T16:23:19.169Z,70.50
2023-06-27T16:25:46.198Z,71.00
2023-06-27T16:28:13.266Z,71.50
2023-06-27T16:30:43.188Z,71.70
2023-06-27T16:33:11.115Z,71.50
2023-06-27T16:35:38.104Z,71.40
2023-06-27T16:38:05.288Z,71.60
2023-06-27T16:40:35.520Z,71.80
2023-06-27T16:43:02.411Z,72.20
2023-06-27T16:45:29.805Z,72.30
2023-06-27T16:47:56.800Z,72.30
2023-06-27T16:50:23.878Z,72.20
2023-06-27T16:52:50.835Z,72.50
2023-06-27T16:55:17.942Z,73.00
2023-06-27T16:57:45.048Z,72.80
2023-06-27T17:00:13.453Z,73.30
2023-06-27T17:02:41.320Z,73.10
2023-06-27T17:05:09.542Z,73.20
2023-06-27T17:07:36.521Z,72.90
2023-06-27T17:10:04.158Z,72.80
2023-06-27T17:12:31.453Z,72.90
2023-06-27T17:14:58.553Z,72.40
2023-06-27T17:17:25.550Z,72.40
2023-06-27T17:19:53.887Z,72.00
2023-06-27T17:22:21.465Z,72.00
2023-06-27T17:24:48.656Z,71.80
2023-06-27T17:27:16.630Z,71.50
2023-06-27T17:29:44.722Z,71.70
2023-06-27T17:32:11.677Z,72.00
2023-06-27T17:34:38.673Z,71.40
2023-06-27T17:37:06.059Z,71.10
2023-06-27T17:39:33.030Z,71.10
2023-06-27T17:42:00.086Z,70.70
2023-06-27T17:44:27.189Z,70.90
2023-06-27T17:46:54.236Z,70.60
2023-06-27T17:49:21.524Z,70.90
2023-06-27T17:51:48.445Z,71.00
2023-06-27T17:54:15.403Z,71.20
2023-06-27T17:56:42.332Z,71.10
2023-06-27T17:59:09.206Z,71.10
2023-06-27T18:01:37.121Z,71.00
2023-06-27T18:04:04.511Z,71.20
2023-06-27T18:06:31.488Z,71.10
2023-06-27T18:08:58.429Z,71.30
2023-06-27T18:11:25.406Z,71.40
2023-06-27T18:13:52.309Z,71.70
2023-06-27T18:16:19.223Z,71.70
2023-06-27T18:18:46.187Z,71.80
2023-06-27T18:21:13.206Z,71.80
2023-06-27T18:23:40.138Z,71.90
2023-06-27T18:26:07.326Z,72.20
2023-06-27T18:28:34.818Z,72.30
2023-06-27T18:31:03.919Z,72.30
2023-06-27T18:33:33.122Z,72.50
2023-06-27T18:36:02.344Z,72.60
2023-06-27T18:38:29.382Z,72.70
2023-06-27T18:40:56.372Z,72.70
2023-06-27T18:43:23.314Z,72.70
2023-06-27T18:45:50.426Z,72.80
2023-06-27T18:48:18.405Z,73.00
2023-06-27T18:50:45.635Z,73.00
2023-06-27T18:53:12.710Z,73.10
2023-06-27T18:55:39.708Z,73.20
2023-06-27T18:58:06.945Z,73.30
2023-06-27T19:00:34.009Z,73.50
2023-06-27T19:03:01.147Z,73.70
2023-06-27T19:05:29.766Z,74.00
2023-06-27T19:07:57.569Z,74.20
2023-06-27T19:10:24.598Z,74.40
2023-06-27T19:12:52.186Z,74.60
2023-06-27T19:15:19.584Z,74.70
2023-06-27T19:17:46.568Z,74.90
2023-06-27T19:20:13.899Z,75.20
2023-06-27T19:22:41.957Z,75.40
2023-06-27T19:25:09.028Z,75.80
2023-06-27T19:27:36.127Z,75.70
2023-06-27T19:30:03.225Z,75.80
2023-06-27T19:32:30.198Z,75.90
2023-06-27T19:34:57.093Z,76.00
2023-06-27T19:37:24.201Z,76.10
2023-06-27T19:39:51.095Z,76.00
2023-06-27T19:42:18.068Z,76.10
2023-06-27T19:44:45.685Z,76.10
2023-06-27T19:47:12.940Z,76.10
2023-06-27T19:49:40.050Z,76.30
2023-06-27T19:52:07.319Z,76.30
2023-06-27T19:54:34.170Z,76.50
2023-06-27T19:57:06.401Z,76.90
2023-06-27T19:59:33.321Z,77.10
2023-06-27T20:02:00.407Z,77.30
2023-06-27T20:04:27.563Z,77.60
2023-06-27T20:06:54.612Z,77.80
2023-06-27T20:09:23.031Z,78.20
2023-06-27T20:11:49.971Z,78.40
2023-06-27T20:14:17.086Z,78.70
2023-06-27T20:16:44.828Z,79.10
2023-06-27T20:19:11.776Z,79.60
2023-06-27T20:21:38.681Z,79.90
2023-06-27T20:24:06.545Z,80.30
2023-06-27T20:26:33.436Z,80.60
2023-06-27T20:29:01.015Z,81.60
2023-06-27T20:31:28.216Z,81.40
2023-06-27T20:33:55.119Z,81.70
2023-06-27T20:36:22.086Z,82.00
2023-06-27T20:38:49.127Z,82.20
2023-06-27T20:41:18.096Z,82.60
2023-06-27T20:43:45.161Z,83.00
2023-06-27T20:46:12.187Z,83.40
2023-06-27T20:48:39.303Z,83.50
2023-06-27T20:51:06.273Z,84.10
2023-06-27T20:53:33.187Z,84.80
2023-06-27T20:56:00.108Z,85.20
2023-06-27T20:58:27.064Z,85.40
2023-06-27T21:00:53.921Z,86.50
2023-06-27T21:03:21.999Z,85.70
2023-06-27T21:05:50.822Z,86.10
2023-06-27T21:08:18.014Z,86.30
2023-06-27T21:10:45.690Z,86.50
2023-06-27T21:13:12.654Z,86.80
2023-06-27T21:15:39.845Z,87.30
2023-06-27T21:18:06.839Z,87.60
2023-06-27T21:20:33.804Z,87.90
2023-06-27T21:23:00.719Z,88.30
2023-06-27T21:25:27.674Z,89.10
2023-06-27T21:27:54.589Z,90.00
2023-06-27T21:30:21.474Z,89.70
2023-06-27T21:32:48.447Z,90.30
2023-06-27T21:35:15.485Z,90.10
2023-06-27T21:37:42.362Z,90.30
2023-06-27T21:40:10.734Z,90.50
2023-06-27T21:42:37.631Z,90.70
2023-06-27T21:45:05.155Z,90.80
2023-06-27T21:47:32.945Z,91.00
2023-06-27T21:50:00.743Z,91.20
2023-06-27T21:52:27.724Z,91.30
2023-06-27T21:54:54.616Z,91.40
2023-06-27T21:57:21.538Z,91.70
2023-06-27T21:59:49.254Z,91.80
2023-06-27T22:02:16.364Z,91.90
2023-06-27T22:04:43.624Z,92.00
2023-06-27T22:07:10.769Z,92.30
2023-06-27T22:09:38.663Z,92.40
2023-06-27T22:12:06.607Z,92.60
2023-06-27T22:14:33.633Z,92.80
2023-06-27T22:17:00.557Z,92.90
2023-06-27T22:19:27.608Z,93.00
2023-06-27T22:21:55.004Z,93.10
2023-06-27T22:24:21.997Z,93.30
2023-06-27T22:26:48.995Z,93.40
2023-06-27T22:29:15.949Z,93.60
2023-06-27T22:31:43.204Z,93.70
2023-06-27T22:34:10.311Z,93.90
2023-06-27T22:36:37.180Z,93.90
2023-06-27T22:39:04.448Z,94.00
2023-06-27T22:41:31.491Z,95.10
2023-06-27T22:43:58.467Z,94.60
2023-06-27T22:46:25.359Z,94.60
2023-06-27T22:48:53.761Z,94.70
2023-06-27T22:51:20.670Z,94.80
2023-06-27T22:53:48.079Z,94.80
2023-06-27T22:56:15.010Z,95.00
2023-06-27T22:58:42.311Z,95.10
2023-06-27T23:01:10.355Z,95.00
2023-06-27T23:03:37.339Z,95.20
2023-06-27T23:06:04.296Z,95.20
2023-06-27T23:08:31.271Z,95.30
2023-06-27T23:10:58.211Z,95.30
2023-06-27T23:13:25.691Z,95.40
2023-06-27T23:15:53.639Z,95.50
2023-06-27T23:18:20.959Z,95.60
2023-06-27T23:20:51.908Z,96.00
2023-06-27T23:23:19.393Z,96.10
2023-06-27T23:25:49.087Z,96.10
2023-06-27T23:28:17.064Z,96.40
2023-06-27T23:30:54.853Z,96.50
2023-06-27T23:33:23.701Z,96.60
2023-06-27T23:35:52.049Z,96.60
2023-06-27T23:38:20.283Z,96.80
2023-06-27T23:40:48.067Z,96.70
2023-06-27T23:43:15.137Z,96.80
2023-06-27T23:45:42.109Z,97.00
2023-06-27T23:48:09.188Z,97.20
2023-06-27T23:50:36.357Z,97.30
2023-06-27T23:53:03.735Z,97.50
2023-06-27T23:55:30.685Z,97.40
2023-06-27T23:57:57.603Z,97.50
